createdAt,value
2022-10-11T00:01:48.514Z,98868.00
2022-10-11T00:04:16.592Z,98902.00
2022-10-11T00:06:44.703Z,98911.00
2022-10-11T00:09:13.403Z,98924.00
2022-10-11T00:11:41.435Z,98932.00
2022-10-11T00:14:10.823Z,98922.00
2022-10-11T00:16:41.710Z,98878.00
2022-10-11T00:19:10.218Z,98876.00
2022-10-11T00:21:38.247Z,98875.00
2022-10-11T00:24:06.899Z,98954.00
2022-10-11T00:26:35.001Z,98917.00
2022-10-11T00:29:03.017Z,98923.00
2022-10-11T00:31:35.711Z,98971.00
2022-10-11T00:34:04.101Z,98962.00
2022-10-11T00:36:32.323Z,98918.00
2022-10-11T00:39:00.442Z,98953.00
2022-10-11T00:41:28.508Z,98904.00
2022-10-11T00:44:14.774Z,98926.00
2022-10-11T00:46:45.474Z,98953.00
2022-10-11T00:49:16.836Z,98895.00
2022-10-11T00:51:48.099Z,98967.00
2022-10-11T00:54:18.987Z,98960.00
2022-10-11T00:56:49.356Z,98974.00
2022-10-11T00:59:19.195Z,98968.00
2022-10-11T01:01:49.755Z,98968.00
2022-10-11T01:04:18.244Z,98969.00
2022-10-11T01:06:47.140Z,98953.00
2022-10-11T01:09:15.697Z,98961.00
2022-10-11T01:11:44.260Z,98953.00
2022-10-11T01:14:27.616Z,98956.00
2022-10-11T01:17:00.330Z,98974.00
2022-10-11T01:19:50.271Z,98968.00
2022-10-11T01:22:27.764Z,98977.00
2022-10-11T01:25:14.165Z,98975.00
2022-10-11T01:27:49.931Z,98978.00
2022-10-11T01:30:26.585Z,98979.00
2022-10-11T01:33:10.600Z,98981.00
2022-10-11T01:35:41.160Z,98979.00
2022-10-11T01:38:12.113Z,98985.00
2022-10-11T01:40:42.636Z,98984.00
2022-10-11T01:43:10.813Z,98995.00
2022-10-11T01:45:41.568Z,98988.00
2022-10-11T01:48:10.793Z,99004.00
2022-10-11T01:50:45.074Z,99000.00
2022-10-11T01:53:21.527Z,99002.00
2022-10-11T01:55:51.985Z,99014.00
2022-10-11T01:58:24.918Z,99008.00
2022-10-11T02:00:57.152Z,99010.00
2022-10-11T02:03:28.817Z,98999.00
2022-10-11T02:05:58.620Z,99004.00
2022-10-11T02:08:28.459Z,99004.00
2022-10-11T02:10:59.508Z,99011.00
2022-10-11T02:13:29.792Z,98993.00
2022-10-11T02:16:00.218Z,98997.00
2022-10-11T02:18:32.215Z,99003.00
2022-10-11T02:21:00.903Z,98989.00
2022-10-11T02:23:32.076Z,98982.00
2022-10-11T02:26:00.272Z,98995.00
2022-10-11T02:28:30.518Z,98996.00
2022-10-11T02:31:00.754Z,98995.00
2022-10-11T02:33:30.987Z,98991.00
2022-10-11T02:36:00.722Z,98986.00
2022-10-11T02:38:31.199Z,98997.00
2022-10-11T02:41:01.903Z,99016.00
2022-10-11T02:43:31.557Z,99014.00
2022-10-11T02:46:01.911Z,99002.00
2022-10-11T02:48:30.591Z,99014.00
2022-10-11T02:50:58.973Z,99013.00
2022-10-11T02:53:27.491Z,99022.00
2022-10-11T02:55:55.954Z,99019.00
2022-10-11T02:58:24.741Z,99020.00
2022-10-11T03:00:52.892Z,99026.00
2022-10-11T03:03:22.462Z,99027.00
2022-10-11T03:05:50.773Z,99019.00
2022-10-11T03:08:18.983Z,99023.00
2022-10-11T03:10:47.204Z,99028.00
2022-10-11T03:13:18.345Z,99034.00
2022-10-11T03:16:01.935Z,99034.00
2022-10-11T03:18:32.704Z,99037.00
2022-10-11T03:21:00.889Z,99041.00
2022-10-11T03:23:29.608Z,99041.00
2022-10-11T03:25:57.798Z,99044.00
2022-10-11T03:28:26.083Z,99043.00
2022-10-11T03:30:54.280Z,99049.00
2022-10-11T03:33:22.468Z,99042.00
2022-10-11T03:35:52.062Z,99055.00
2022-10-11T03:38:21.361Z,99059.00
2022-10-11T03:40:49.535Z,99067.00
2022-10-11T03:43:18.168Z,99058.00
2022-10-11T03:45:46.357Z,99063.00
2022-10-11T03:48:14.570Z,99065.00
2022-10-11T03:50:42.728Z,99070.00
2022-10-11T03:53:12.347Z,99069.00
2022-10-11T03:55:41.067Z,99063.00
2022-10-11T03:58:09.318Z,99064.00
2022-10-11T04:00:37.481Z,99069.00
2022-10-11T04:03:06.218Z,99079.00
2022-10-11T04:05:34.905Z,99065.00
2022-10-11T04:08:03.057Z,99078.00
2022-10-11T04:10:32.711Z,99074.00
2022-10-11T04:13:00.948Z,99080.00
2022-10-11T04:15:29.392Z,99076.00
2022-10-11T04:17:57.597Z,99082.00
2022-10-11T04:20:25.781Z,99083.00
2022-10-11T04:22:53.983Z,99089.00
2022-10-11T04:25:22.182Z,99091.00
2022-10-11T04:27:52.079Z,99079.00
2022-10-11T04:30:20.331Z,99091.00
2022-10-11T04:32:48.516Z,99086.00
2022-10-11T04:35:16.778Z,99095.00
2022-10-11T04:37:45.442Z,99088.00
2022-10-11T04:40:14.149Z,99088.00
2022-10-11T04:42:42.379Z,99093.00
2022-10-11T04:45:12.414Z,99088.00
2022-10-11T04:47:41.221Z,99092.00
2022-10-11T04:50:09.811Z,99090.00
2022-10-11T04:52:37.976Z,99099.00
2022-10-11T04:55:07.027Z,99099.00
2022-10-11T04:57:35.232Z,99097.00
2022-10-11T05:00:05.857Z,99105.00
2022-10-11T05:02:35.920Z,99114.00
2022-10-11T05:05:04.463Z,99115.00
2022-10-11T05:07:32.760Z,99104.00
2022-10-11T05:10:00.939Z,99115.00
2022-10-11T05:12:29.169Z,99123.00
2022-10-11T05:14:58.026Z,99123.00
2022-10-11T05:17:26.668Z,99128.00
2022-10-11T05:19:56.350Z,99124.00
2022-10-11T05:22:24.491Z,99138.00
2022-10-11T05:24:52.722Z,99137.00
2022-10-11T05:27:20.891Z,99149.00
2022-10-11T05:29:49.131Z,99146.00
2022-10-11T05:32:17.357Z,99144.00
2022-10-11T05:34:45.553Z,99145.00
2022-10-11T05:37:15.228Z,99151.00
2022-10-11T05:39:43.704Z,99144.00
2022-10-11T05:42:11.855Z,99149.00
2022-10-11T05:44:40.017Z,99160.00
2022-10-11T05:47:08.354Z,99154.00
2022-10-11T05:49:36.612Z,99152.00
2022-10-11T05:52:06.709Z,99159.00
2022-10-11T05:54:36.808Z,99162.00
2022-10-11T05:57:06.954Z,99163.00
2022-10-11T05:59:36.501Z,99168.00
2022-10-11T06:02:04.668Z,99169.00
2022-10-11T06:04:32.862Z,99177.00
2022-10-11T06:07:01.105Z,99179.00
2022-10-11T06:09:29.374Z,99185.00
2022-10-11T06:11:59.144Z,99190.00
2022-10-11T06:14:27.567Z,99192.00
2022-10-11T06:16:55.821Z,99201.00
2022-10-11T06:19:24.262Z,99201.00
2022-10-11T06:21:53.027Z,99203.00
2022-10-11T06:24:24.279Z,99209.00
2022-10-11T06:26:53.460Z,99217.00
2022-10-11T06:29:23.284Z,99214.00
2022-10-11T06:31:51.474Z,99213.00
2022-10-11T06:34:19.675Z,99224.00
2022-10-11T06:36:47.803Z,99220.00
2022-10-11T06:39:15.982Z,99232.00
2022-10-11T06:41:44.179Z,99231.00
2022-10-11T06:44:14.363Z,99233.00
2022-10-11T06:46:44.417Z,99242.00
2022-10-11T06:49:13.205Z,99236.00
2022-10-11T06:51:41.397Z,99244.00
2022-10-11T06:54:09.674Z,99248.00
2022-10-11T06:56:37.796Z,99250.00
2022-10-11T06:59:06.243Z,99252.00
2022-10-11T07:01:34.446Z,99253.00
2022-10-11T07:04:04.566Z,99255.00
2022-10-11T07:06:32.987Z,99260.00
2022-10-11T07:09:01.196Z,99262.00
2022-10-11T07:11:29.405Z,99265.00
2022-10-11T07:13:58.918Z,99258.00
2022-10-11T07:16:27.334Z,99273.00
2022-10-11T07:19:00.169Z,99277.00
2022-10-11T07:21:30.736Z,99283.00
2022-10-11T07:23:58.982Z,99287.00
2022-10-11T07:26:27.277Z,99282.00
2022-10-11T07:28:55.599Z,99289.00
2022-10-11T07:31:25.735Z,99289.00
2022-10-11T07:33:54.046Z,99280.00
2022-10-11T07:36:23.318Z,99283.00
2022-10-11T07:38:52.942Z,99280.00
2022-10-11T07:41:21.251Z,99300.00
2022-10-11T07:43:49.885Z,99291.00
2022-10-11T07:46:18.427Z,99304.00
2022-10-11T07:48:46.622Z,99298.00
2022-10-11T07:51:15.830Z,99291.00
2022-10-11T07:53:44.408Z,99298.00
2022-10-11T07:56:14.751Z,99294.00
2022-10-11T07:58:43.159Z,99296.00
2022-10-11T08:01:11.636Z,99299.00
2022-10-11T08:03:39.901Z,99307.00
2022-10-11T08:06:09.992Z,99313.00
2022-10-11T08:08:38.479Z,99315.00
2022-10-11T08:11:06.867Z,99309.00
2022-10-11T08:13:36.505Z,99308.00
2022-10-11T08:16:11.676Z,99312.00
2022-10-11T08:18:39.825Z,99314.00
2022-10-11T08:21:09.045Z,99313.00
2022-10-11T08:23:37.299Z,99324.00
2022-10-11T08:26:05.906Z,99315.00
2022-10-11T08:28:34.312Z,99316.00
2022-10-11T08:31:03.949Z,99315.00
2022-10-11T08:33:32.178Z,99316.00
2022-10-11T08:36:00.385Z,99326.00
2022-10-11T08:38:28.526Z,99323.00
2022-10-11T08:40:57.423Z,99325.00
2022-10-11T08:43:31.139Z,99319.00
2022-10-11T08:46:00.398Z,99313.00
2022-10-11T08:48:34.851Z,99323.00
2022-10-11T08:51:03.054Z,99325.00
2022-10-11T08:53:39.186Z,99324.00
2022-10-11T08:56:07.915Z,99324.00
2022-10-11T08:58:38.832Z,99320.00
2022-10-11T09:01:07.806Z,99330.00
2022-10-11T09:03:39.321Z,99330.00
2022-10-11T09:06:13.349Z,99320.00
2022-10-11T09:08:53.586Z,99329.00
2022-10-11T09:11:25.553Z,99322.00
2022-10-11T09:14:04.351Z,99327.00
2022-10-11T09:16:39.607Z,99326.00
2022-10-11T09:19:23.412Z,99326.00
2022-10-11T09:21:53.299Z,99333.00
2022-10-11T09:24:28.978Z,99326.00
2022-10-11T09:26:57.731Z,99331.00
2022-10-11T09:29:33.796Z,99335.00
2022-10-11T09:32:02.021Z,99330.00
2022-10-11T09:34:33.633Z,99316.00
2022-10-11T09:37:04.799Z,99323.00
2022-10-11T09:39:33.868Z,99327.00
2022-10-11T09:42:02.980Z,99326.00
2022-10-11T09:44:34.711Z,99335.00
2022-10-11T09:47:02.890Z,99324.00
2022-10-11T09:49:34.692Z,99329.00
2022-10-11T09:52:03.831Z,99331.00
2022-10-11T09:57:40.978Z,99324.00
2022-10-11T10:00:20.521Z,99328.00
2022-10-11T10:02:49.428Z,99330.00
2022-10-11T10:05:21.085Z,99328.00
2022-10-11T10:08:05.038Z,99339.00
2022-10-11T10:10:38.523Z,99332.00
2022-10-11T10:13:08.183Z,99325.00
2022-10-11T10:15:37.043Z,99329.00
2022-10-11T10:18:06.118Z,99342.00
2022-10-11T10:20:36.259Z,99339.00
2022-10-11T10:23:09.127Z,99331.00
2022-10-11T10:25:43.333Z,99328.00
2022-10-11T10:28:19.766Z,99338.00
2022-10-11T10:30:54.469Z,99335.00
2022-10-11T10:33:23.671Z,99330.00
2022-10-11T10:35:54.977Z,99331.00
2022-10-11T10:38:26.755Z,99332.00
2022-10-11T10:40:56.678Z,99337.00
2022-10-11T10:43:26.461Z,99338.00
2022-10-11T10:46:22.148Z,99341.00
2022-10-11T10:51:45.960Z,99351.00
2022-10-11T10:54:19.383Z,99345.00
2022-10-11T10:57:18.219Z,99257.00
2022-10-11T11:00:08.827Z,99353.00
2022-10-11T11:02:41.658Z,99321.00
2022-10-11T11:05:17.576Z,99328.00
2022-10-11T11:07:48.277Z,99311.00
2022-10-11T11:10:17.857Z,99328.00
2022-10-11T11:12:47.064Z,99324.00
2022-10-11T11:15:19.748Z,99334.00
2022-10-11T11:17:55.086Z,99333.00
2022-10-11T11:20:32.992Z,99289.00
2022-10-11T11:23:05.099Z,99269.00
2022-10-11T11:25:45.090Z,99338.00
2022-10-11T11:28:24.466Z,99232.00
2022-10-11T11:30:55.916Z,99252.00
2022-10-11T11:33:28.451Z,99350.00
2022-10-11T11:35:57.670Z,99260.00
2022-10-11T11:38:30.055Z,99248.00
2022-10-11T11:40:58.695Z,99315.00
2022-10-11T11:43:29.270Z,99315.00
2022-10-11T11:45:58.337Z,99304.00
2022-10-11T11:48:27.045Z,99321.00
2022-10-11T11:50:59.245Z,99265.00
2022-10-11T11:53:39.557Z,99317.00
2022-10-11T11:56:09.682Z,99291.00
2022-10-11T11:58:41.494Z,99298.00
2022-10-11T12:01:17.002Z,99318.00
2022-10-11T12:03:47.695Z,99322.00
2022-10-11T12:06:21.816Z,99319.00
2022-10-11T12:09:06.958Z,99329.00
2022-10-11T12:11:49.285Z,99326.00
2022-10-11T12:14:24.798Z,99319.00
2022-10-11T12:17:23.473Z,99307.00
2022-10-11T12:20:10.823Z,99316.00
2022-10-11T12:22:53.922Z,99315.00
2022-10-11T12:25:34.953Z,99311.00
2022-10-11T12:28:03.809Z,99311.00
2022-10-11T12:30:53.897Z,99319.00
2022-10-11T12:33:23.011Z,99311.00
2022-10-11T12:36:08.263Z,99321.00
2022-10-11T12:38:37.868Z,99314.00
2022-10-11T12:41:49.882Z,99310.00
2022-10-11T12:44:22.069Z,99304.00
2022-10-11T12:47:04.620Z,99293.00
2022-10-11T12:49:43.876Z,99290.00
2022-10-11T12:52:27.018Z,99294.00
2022-10-11T12:55:20.649Z,99294.00
2022-10-11T12:58:26.016Z,99289.00
2022-10-11T13:01:18.019Z,99289.00
2022-10-11T13:03:49.372Z,99288.00
2022-10-11T13:06:19.119Z,99283.00
2022-10-11T13:08:49.810Z,99282.00
2022-10-11T13:11:19.912Z,99280.00
2022-10-11T13:13:52.600Z,99285.00
2022-10-11T13:16:22.043Z,99283.00
2022-10-11T13:18:51.744Z,99272.00
2022-10-11T13:21:31.553Z,99277.00
2022-10-11T13:24:01.635Z,99262.00
2022-10-11T13:26:30.730Z,99272.00
2022-10-11T13:29:01.243Z,99281.00
2022-10-11T13:31:29.477Z,99257.00
2022-10-11T13:33:59.358Z,99275.00
2022-10-11T13:36:28.358Z,99220.00
2022-10-11T13:38:57.960Z,99267.00
2022-10-11T13:41:27.166Z,99279.00
2022-10-11T13:43:55.626Z,99231.00
2022-10-11T13:46:26.306Z,99278.00
2022-10-11T13:49:01.832Z,99223.00
2022-10-11T13:51:32.689Z,99251.00
2022-10-11T13:54:02.564Z,99272.00
2022-10-11T13:56:31.629Z,99276.00
2022-10-11T13:58:59.890Z,99270.00
2022-10-11T14:01:31.447Z,99266.00
2022-10-11T14:04:00.868Z,99269.00
2022-10-11T14:06:40.365Z,99256.00
2022-10-11T14:09:14.686Z,99251.00
2022-10-11T14:11:42.944Z,99261.00
2022-10-11T14:14:31.230Z,99244.00
2022-10-11T14:17:05.348Z,99257.00
2022-10-11T14:19:33.711Z,99252.00
2022-10-11T14:22:01.871Z,99260.00
2022-10-11T14:24:30.069Z,99254.00
2022-10-11T14:26:59.153Z,99263.00
2022-10-11T14:29:28.035Z,99255.00
2022-10-11T14:32:06.016Z,99261.00
2022-10-11T14:34:34.283Z,99257.00
2022-10-11T14:37:02.529Z,99248.00
2022-10-11T14:39:31.869Z,99237.00
2022-10-11T14:42:00.196Z,99180.00
2022-10-11T14:44:28.509Z,99249.00
2022-10-11T14:46:56.853Z,99225.00
2022-10-11T14:49:29.411Z,99260.00
2022-10-11T14:51:58.819Z,99252.00
2022-10-11T14:54:28.255Z,99248.00
2022-10-11T14:56:57.169Z,99243.00
2022-10-11T14:59:28.960Z,99250.00
2022-10-11T15:01:57.182Z,99230.00
2022-10-11T15:04:26.262Z,99249.00
2022-10-11T15:06:56.580Z,99219.00
2022-10-11T15:09:24.798Z,99243.00
2022-10-11T15:11:55.459Z,99253.00
2022-10-11T15:14:29.851Z,99263.00
2022-10-11T15:16:59.154Z,99257.00
2022-10-11T15:19:28.335Z,99270.00
2022-10-11T15:21:57.897Z,99250.00
2022-10-11T15:24:26.124Z,99243.00
2022-10-11T15:26:54.737Z,99260.00
2022-10-11T15:29:27.005Z,99261.00
2022-10-11T15:31:55.713Z,99254.00
2022-10-11T15:34:23.825Z,99262.00
2022-10-11T15:36:52.081Z,99254.00
2022-10-11T15:39:28.693Z,99251.00
2022-10-11T15:41:56.938Z,99257.00
2022-10-11T15:44:26.562Z,99259.00
2022-10-11T15:46:54.759Z,99266.00
2022-10-11T15:49:22.854Z,99253.00
2022-10-11T15:51:51.094Z,99253.00
2022-10-11T15:54:19.285Z,99250.00
2022-10-11T15:56:49.104Z,99249.00
2022-10-11T15:59:17.246Z,99187.00
2022-10-11T16:01:45.428Z,99263.00
2022-10-11T16:04:13.561Z,99265.00
2022-10-11T16:06:42.739Z,99243.00
2022-10-11T16:09:10.906Z,99254.00
2022-10-11T16:11:39.526Z,99246.00
2022-10-11T16:14:09.077Z,99249.00
2022-10-11T16:16:37.242Z,99257.00
2022-10-11T16:19:05.872Z,99175.00
2022-10-11T16:21:34.134Z,99256.00
2022-10-11T16:24:02.743Z,99229.00
2022-10-11T16:26:31.642Z,99242.00
2022-10-11T16:28:59.929Z,99244.00
2022-10-11T16:31:29.523Z,99268.00
2022-10-11T16:33:57.752Z,99245.00
2022-10-11T16:36:40.780Z,99234.00
2022-10-11T16:39:10.473Z,99266.00
2022-10-11T16:41:38.767Z,99264.00
2022-10-11T16:44:07.078Z,99255.00
2022-10-11T16:46:36.840Z,99242.00
2022-10-11T16:49:05.602Z,99260.00
2022-10-11T16:51:33.763Z,99270.00
2022-10-11T16:54:02.512Z,99274.00
2022-10-11T16:56:33.925Z,99276.00
2022-10-11T16:59:04.312Z,99287.00
2022-10-11T17:01:32.945Z,99281.00
2022-10-11T17:04:03.074Z,99238.00
2022-10-11T17:06:31.731Z,99280.00
2022-10-11T17:08:59.868Z,99278.00
2022-10-11T17:11:28.061Z,99286.00
2022-10-11T17:13:56.736Z,99277.00
2022-10-11T17:16:25.010Z,99298.00
2022-10-11T17:18:53.217Z,99283.00
2022-10-11T17:21:22.963Z,99289.00
2022-10-11T17:23:51.249Z,99261.00
2022-10-11T17:26:20.460Z,99287.00
2022-10-11T17:28:48.763Z,99263.00
2022-10-11T17:31:17.144Z,99290.00
2022-10-11T17:33:45.484Z,99270.00
2022-10-11T17:36:15.620Z,99259.00
2022-10-11T17:38:46.509Z,99268.00
2022-10-11T17:41:14.916Z,99219.00
2022-10-11T17:43:43.715Z,99288.00
2022-10-11T17:46:13.197Z,99280.00
2022-10-11T17:48:41.668Z,99283.00
2022-10-11T17:51:10.574Z,99283.00
2022-10-11T17:53:38.967Z,99255.00
2022-10-11T17:56:09.621Z,99283.00
2022-10-11T17:58:38.145Z,99268.00
2022-10-11T18:01:07.756Z,99289.00
2022-10-11T18:03:36.388Z,99300.00
2022-10-11T18:06:06.056Z,99320.00
2022-10-11T18:08:39.947Z,99286.00
2022-10-11T18:11:13.537Z,99289.00
2022-10-11T18:13:46.247Z,99289.00
2022-10-11T18:16:15.899Z,99249.00
2022-10-11T18:18:44.794Z,99284.00
2022-10-11T18:21:13.141Z,99281.00
2022-10-11T18:23:42.036Z,99287.00
2022-10-11T18:26:13.006Z,99291.00
2022-10-11T18:28:41.961Z,99290.00
2022-10-11T18:31:13.474Z,99278.00
2022-10-11T18:33:42.714Z,99285.00
2022-10-11T18:36:13.508Z,99279.00
2022-10-11T18:38:43.985Z,99284.00
2022-10-11T18:41:14.369Z,99273.00
2022-10-11T18:43:42.942Z,99285.00
2022-10-11T18:46:12.372Z,99192.00
2022-10-11T18:48:41.686Z,99286.00
2022-10-11T18:51:11.030Z,99231.00
2022-10-11T18:53:40.004Z,99285.00
2022-10-11T18:56:09.612Z,99286.00
2022-10-11T18:58:40.008Z,99292.00
2022-10-11T19:01:08.545Z,99294.00
2022-10-11T19:03:36.790Z,99297.00
2022-10-11T19:06:05.726Z,99287.00
2022-10-11T19:08:34.356Z,99273.00
2022-10-11T19:11:06.524Z,99295.00
2022-10-11T19:13:34.792Z,99300.00
2022-10-11T19:16:11.893Z,99288.00
2022-10-11T19:18:44.026Z,99284.00
2022-10-11T19:21:13.585Z,99270.00
2022-10-11T19:23:42.704Z,99273.00
2022-10-11T19:26:14.045Z,99288.00
2022-10-11T19:28:42.282Z,99269.00
2022-10-11T19:31:16.983Z,99289.00
2022-10-11T19:33:45.487Z,99280.00
2022-10-11T19:36:14.440Z,99236.00
2022-10-11T19:38:44.608Z,99267.00
2022-10-11T19:41:12.942Z,99274.00
2022-10-11T19:43:41.163Z,99289.00
2022-10-11T19:46:10.634Z,99229.00
2022-10-11T19:48:40.317Z,99285.00
2022-10-11T19:51:09.794Z,99294.00
2022-10-11T19:53:37.993Z,99250.00
2022-10-11T19:56:07.520Z,99282.00
2022-10-11T19:58:35.791Z,99281.00
2022-10-11T20:01:04.330Z,99269.00
2022-10-11T20:03:32.670Z,99272.00
2022-10-11T20:06:02.746Z,99267.00
2022-10-11T20:08:31.975Z,99291.00
2022-10-11T20:11:00.172Z,99296.00
2022-10-11T20:13:32.478Z,99293.00
2022-10-11T20:16:03.988Z,99296.00
2022-10-11T20:18:32.206Z,99299.00
2022-10-11T20:21:03.323Z,99287.00
2022-10-11T20:23:31.584Z,99274.00
2022-10-11T20:26:00.572Z,99283.00
2022-10-11T20:28:29.060Z,99270.00
2022-10-11T20:30:57.344Z,99304.00
2022-10-11T20:33:25.635Z,99294.00
2022-10-11T20:36:00.477Z,99296.00
2022-10-11T20:38:30.499Z,99305.00
2022-10-11T20:40:58.716Z,99306.00
2022-10-11T20:43:27.004Z,99319.00
2022-10-11T20:46:02.056Z,99299.00
2022-10-11T20:48:30.358Z,99317.00
2022-10-11T20:50:58.596Z,99276.00
2022-10-11T20:53:27.584Z,99299.00
2022-10-11T20:55:57.202Z,99298.00
2022-10-11T20:58:25.433Z,99304.00
2022-10-11T21:00:57.092Z,99310.00
2022-10-11T21:03:25.786Z,99308.00
2022-10-11T21:05:59.865Z,99316.00
2022-10-11T21:10:57.532Z,99298.00
2022-10-11T21:13:25.748Z,99300.00
2022-10-11T21:15:53.901Z,99316.00
2022-10-11T21:18:22.157Z,99313.00
2022-10-11T21:20:50.340Z,99243.00
2022-10-11T21:23:19.956Z,99315.00
2022-10-11T21:25:48.122Z,99299.00
2022-10-11T21:28:17.729Z,99282.00
2022-10-11T21:30:45.849Z,99298.00
2022-10-11T21:33:14.026Z,99275.00
2022-10-11T21:35:42.176Z,99281.00
2022-10-11T21:38:10.615Z,99298.00
2022-10-11T21:40:40.131Z,99247.00
2022-10-11T21:43:08.441Z,99266.00
2022-10-11T21:45:39.180Z,99306.00
2022-10-11T21:48:07.690Z,99308.00
2022-10-11T21:50:35.859Z,99288.00
2022-10-11T21:53:04.069Z,99318.00
2022-10-11T21:55:32.180Z,99314.00
2022-10-11T21:58:00.367Z,99299.00
2022-10-11T22:00:28.485Z,99312.00
2022-10-11T22:02:58.160Z,99314.00
2022-10-11T22:05:26.353Z,99295.00
2022-10-11T22:07:54.534Z,99312.00
2022-10-11T22:10:22.695Z,99308.00
2022-10-11T22:12:50.896Z,99268.00
2022-10-11T22:15:19.110Z,99262.00
2022-10-11T22:17:47.340Z,99255.00
2022-10-11T22:20:17.046Z,99254.00
2022-10-11T22:22:45.262Z,99277.00
2022-10-11T22:25:13.415Z,99285.00
2022-10-11T22:27:41.593Z,99296.00
2022-10-11T22:30:10.717Z,99249.00
2022-10-11T22:32:38.918Z,99248.00
2022-10-11T22:35:07.683Z,99287.00
2022-10-11T22:37:37.561Z,99233.00
2022-10-11T22:40:06.663Z,99264.00
2022-10-11T22:42:34.805Z,99262.00
2022-10-11T22:45:03.015Z,99284.00
2022-10-11T22:47:31.195Z,99257.00
2022-10-11T22:49:59.344Z,99278.00
2022-10-11T22:52:27.512Z,99273.00
2022-10-11T22:54:57.075Z,99225.00
2022-10-11T22:57:25.239Z,99283.00
2022-10-11T22:59:53.418Z,99289.00
2022-10-11T23:02:21.614Z,99285.00
2022-10-11T23:04:50.500Z,99335.00
2022-10-11T23:07:18.679Z,99227.00
2022-10-11T23:09:46.904Z,99237.00
2022-10-11T23:12:16.465Z,99256.00
2022-10-11T23:14:45.135Z,99287.00
2022-10-11T23:17:13.368Z,99207.00
2022-10-11T23:19:41.550Z,99215.00
2022-10-11T23:22:09.703Z,99281.00
2022-10-11T23:24:37.896Z,99271.00
2022-10-11T23:27:06.126Z,99283.00
2022-10-11T23:29:35.714Z,99263.00
2022-10-11T23:32:03.948Z,99283.00
2022-10-11T23:34:34.029Z,99283.00
2022-10-11T23:37:02.155Z,99284.00
2022-10-11T23:39:30.346Z,99273.00
2022-10-11T23:41:58.602Z,99270.00
2022-10-11T23:44:26.786Z,99269.00
2022-10-11T23:46:56.355Z,99291.00
2022-10-11T23:49:24.513Z,99290.00
2022-10-11T23:51:52.662Z,99294.00
2022-10-11T23:54:20.852Z,99269.00
2022-10-11T23:56:49.065Z,99286.00
2022-10-11T23:59:17.293Z,99289.00
